NPG852 KLAX-KSFO
Flight info
| Callsign | NPG852 |
|---|---|
| Flight time | 0h 53m |
| Altitude | 32000 |
| Route | SUMMR2 STOKD SERFR SERFR4 |
| Aircraft | B738/M-SDE2E3FGHIRWXY/LB1 |
Departure
| Time | 2026-05-05 05:54 |
|---|---|
| Airport | Los Angeles International Airport (KLAX) |
Arrival
| Time | 2026-05-05 06:47 |
|---|---|
| Airport | San Francisco International Airport (KSFO) |
| Time | Latitude | Longitude | Altitude | Speed | Heading |
|---|---|---|---|---|---|
| 2026-05-05 05:21 | 33.93382 | -118.38978 | 123 ft | 0 kts | 180° |
| 2026-05-05 05:25 | 33.93383 | -118.38978 | 125 ft | 0 kts | 180° |
| 2026-05-05 05:37 | 33.93384 | -118.38978 | 125 ft | 0 kts | 180° |
| 2026-05-05 05:41 | 33.93385 | -118.38978 | 125 ft | 2 kts | 180° |
| 2026-05-05 05:41 | 33.93401 | -118.38979 | 121 ft | 2 kts | 180° |
| 2026-05-05 05:41 | 33.93417 | -118.38979 | 123 ft | 2 kts | 180° |
| 2026-05-05 05:41 | 33.93434 | -118.38979 | 123 ft | 2 kts | 180° |
| 2026-05-05 05:42 | 33.93450 | -118.38979 | 121 ft | 2 kts | 180° |
| 2026-05-05 05:42 | 33.93466 | -118.38979 | 121 ft | 2 kts | 180° |
| 2026-05-05 05:42 | 33.93483 | -118.38978 | 123 ft | 2 kts | 180° |
| 2026-05-05 05:42 | 33.93499 | -118.38978 | 121 ft | 2 kts | 179° |
| 2026-05-05 05:43 | 33.93515 | -118.38980 | 122 ft | 2 kts | 169° |
| 2026-05-05 05:43 | 33.93531 | -118.38985 | 122 ft | 2 kts | 150° |
| 2026-05-05 05:43 | 33.93539 | -118.39000 | 123 ft | 2 kts | 75° |
| 2026-05-05 05:43 | 33.93538 | -118.39014 | 122 ft | 0 kts | 80° |
| 2026-05-05 05:45 | 33.93538 | -118.39013 | 122 ft | 0 kts | 81° |
| 2026-05-05 05:46 | 33.93540 | -118.38998 | 120 ft | 4 kts | 83° |
| 2026-05-05 05:46 | 33.93545 | -118.38945 | 125 ft | 9 kts | 83° |
| 2026-05-05 05:46 | 33.93554 | -118.38853 | 125 ft | 13 kts | 83° |
| 2026-05-05 05:46 | 33.93567 | -118.38729 | 123 ft | 16 kts | 83° |
| 2026-05-05 05:47 | 33.93582 | -118.38583 | 123 ft | 18 kts | 83° |
| 2026-05-05 05:47 | 33.93595 | -118.38454 | 120 ft | 14 kts | 83° |
| 2026-05-05 05:47 | 33.93606 | -118.38343 | 123 ft | 11 kts | 83° |
| 2026-05-05 05:47 | 33.93641 | -118.38282 | 124 ft | 10 kts | 21° |
| 2026-05-05 05:48 | 33.93715 | -118.38286 | 122 ft | 11 kts | 353° |
| 2026-05-05 05:48 | 33.93800 | -118.38299 | 123 ft | 13 kts | 353° |
| 2026-05-05 05:48 | 33.93852 | -118.38307 | 122 ft | 0 kts | 352° |
| 2026-05-05 05:51 | 33.93866 | -118.38309 | 121 ft | 3 kts | 352° |
| 2026-05-05 05:51 | 33.93885 | -118.38312 | 123 ft | 5 kts | 352° |
| 2026-05-05 05:51 | 33.93932 | -118.38322 | 122 ft | 8 kts | 338° |
| 2026-05-05 05:52 | 33.93949 | -118.38369 | 122 ft | 0 kts | 264° |
| 2026-05-05 05:53 | 33.93949 | -118.38370 | 122 ft | 1 kts | 264° |
| 2026-05-05 05:53 | 33.93940 | -118.38475 | 123 ft | 40 kts | 264° |
| 2026-05-05 05:53 | 33.93875 | -118.39097 | 125 ft | 107 kts | 263° |
| 2026-05-05 05:53 | 33.93759 | -118.40207 | 193 ft | 153 kts | 263° |
| 2026-05-05 05:54 | 33.93626 | -118.41508 | 801 ft | 157 kts | 263° |
| 2026-05-05 05:54 | 33.93498 | -118.42801 | 1571 ft | 155 kts | 264° |
| 2026-05-05 05:54 | 33.93384 | -118.44106 | 2140 ft | 164 kts | 264° |
| 2026-05-05 05:54 | 33.93243 | -118.45583 | 2392 ft | 191 kts | 263° |
| 2026-05-05 05:55 | 33.93078 | -118.47260 | 2571 ft | 212 kts | 264° |
| 2026-05-05 05:55 | 33.92919 | -118.49099 | 2804 ft | 228 kts | 264° |
| 2026-05-05 05:55 | 33.92751 | -118.51085 | 3012 ft | 248 kts | 264° |
| 2026-05-05 05:55 | 33.92576 | -118.53187 | 3609 ft | 254 kts | 264° |
| 2026-05-05 05:56 | 33.92401 | -118.55303 | 4349 ft | 256 kts | 263° |
| 2026-05-05 05:56 | 33.92224 | -118.57428 | 5021 ft | 260 kts | 263° |
| 2026-05-05 05:56 | 33.92043 | -118.59606 | 5749 ft | 262 kts | 263° |
| 2026-05-05 05:56 | 33.91861 | -118.61797 | 6491 ft | 264 kts | 262° |
| 2026-05-05 05:57 | 33.91728 | -118.64016 | 7203 ft | 267 kts | 267° |
| 2026-05-05 05:57 | 33.91714 | -118.66259 | 7934 ft | 269 kts | 268° |
| 2026-05-05 05:57 | 33.91723 | -118.68524 | 8688 ft | 271 kts | 269° |
| 2026-05-05 05:57 | 33.91730 | -118.70803 | 9496 ft | 274 kts | 270° |
| 2026-05-05 05:58 | 33.91732 | -118.73116 | 10169 ft | 280 kts | 269° |
| 2026-05-05 05:58 | 33.91728 | -118.75545 | 10418 ft | 302 kts | 269° |
| 2026-05-05 05:58 | 33.91719 | -118.78157 | 10692 ft | 320 kts | 269° |
| 2026-05-05 05:58 | 33.91707 | -118.80869 | 11294 ft | 326 kts | 269° |
| 2026-05-05 05:59 | 33.91695 | -118.83599 | 11833 ft | 325 kts | 269° |
| 2026-05-05 05:59 | 33.91749 | -118.86353 | 12376 ft | 332 kts | 271° |
| 2026-05-05 05:59 | 33.91847 | -118.89135 | 13186 ft | 333 kts | 271° |
| 2026-05-05 05:59 | 33.91945 | -118.91917 | 14000 ft | 334 kts | 271° |
| 2026-05-05 06:00 | 33.92036 | -118.94725 | 14710 ft | 337 kts | 270° |
| 2026-05-05 06:00 | 33.92121 | -118.97564 | 15397 ft | 341 kts | 270° |
| 2026-05-05 06:00 | 33.92244 | -119.00431 | 16111 ft | 345 kts | 276° |
| 2026-05-05 06:00 | 33.92978 | -119.03205 | 16819 ft | 354 kts | 294° |
| 2026-05-05 06:01 | 33.94243 | -119.05768 | 17533 ft | 359 kts | 299° |
| 2026-05-05 06:01 | 33.95603 | -119.08309 | 18198 ft | 364 kts | 299° |
| 2026-05-05 06:01 | 33.96980 | -119.10884 | 18782 ft | 368 kts | 299° |
| 2026-05-05 06:01 | 33.98348 | -119.13495 | 19412 ft | 370 kts | 298° |
| 2026-05-05 06:02 | 33.99714 | -119.16136 | 20022 ft | 372 kts | 298° |
| 2026-05-05 06:02 | 34.01197 | -119.18720 | 20599 ft | 381 kts | 309° |
| 2026-05-05 06:02 | 34.03274 | -119.20760 | 21185 ft | 389 kts | 321° |
| 2026-05-05 06:02 | 34.05505 | -119.22637 | 21765 ft | 393 kts | 321° |
| 2026-05-05 06:03 | 34.07733 | -119.24504 | 22300 ft | 397 kts | 321° |
| 2026-05-05 06:03 | 34.10028 | -119.26443 | 22953 ft | 397 kts | 321° |
| 2026-05-05 06:03 | 34.12266 | -119.28343 | 23489 ft | 401 kts | 321° |
| 2026-05-05 06:03 | 34.14554 | -119.30299 | 23903 ft | 405 kts | 320° |
| 2026-05-05 06:04 | 34.16863 | -119.32281 | 24345 ft | 408 kts | 320° |
| 2026-05-05 06:04 | 34.19183 | -119.34278 | 24793 ft | 411 kts | 320° |
| 2026-05-05 06:04 | 34.21515 | -119.36289 | 25237 ft | 413 kts | 320° |
| 2026-05-05 06:04 | 34.23858 | -119.38312 | 25687 ft | 415 kts | 320° |
| 2026-05-05 06:05 | 34.26218 | -119.40351 | 26108 ft | 418 kts | 320° |
| 2026-05-05 06:05 | 34.28594 | -119.42406 | 26502 ft | 421 kts | 320° |
| 2026-05-05 06:05 | 34.30983 | -119.44473 | 26891 ft | 424 kts | 320° |
| 2026-05-05 06:05 | 34.33382 | -119.46550 | 27359 ft | 424 kts | 320° |
| 2026-05-05 06:06 | 34.35781 | -119.48626 | 27935 ft | 422 kts | 320° |
| 2026-05-05 06:06 | 34.38166 | -119.50692 | 28511 ft | 420 kts | 320° |
| 2026-05-05 06:06 | 34.40550 | -119.52761 | 29047 ft | 420 kts | 320° |
| 2026-05-05 06:06 | 34.42804 | -119.54979 | 29604 ft | 415 kts | 313° |
| 2026-05-05 06:07 | 34.44854 | -119.57411 | 30176 ft | 411 kts | 310° |
| 2026-05-05 06:07 | 34.46823 | -119.59912 | 30584 ft | 411 kts | 309° |
| 2026-05-05 06:07 | 34.48767 | -119.62419 | 30890 ft | 413 kts | 309° |
| 2026-05-05 06:07 | 34.50721 | -119.64926 | 31234 ft | 414 kts | 309° |
| 2026-05-05 06:08 | 34.52743 | -119.67484 | 31636 ft | 413 kts | 310° |
| 2026-05-05 06:08 | 34.54719 | -119.69959 | 31998 ft | 414 kts | 310° |
| 2026-05-05 06:08 | 34.58817 | -119.75048 | 32034 ft | 428 kts | 310° |
| 2026-05-05 06:09 | 34.63058 | -119.80293 | 32045 ft | 441 kts | 310° |
| 2026-05-05 06:09 | 34.67412 | -119.85676 | 32051 ft | 453 kts | 311° |
| 2026-05-05 06:10 | 34.71863 | -119.91189 | 32041 ft | 458 kts | 311° |
| 2026-05-05 06:10 | 34.76325 | -119.96725 | 32047 ft | 458 kts | 312° |
| 2026-05-05 06:11 | 34.80785 | -120.02269 | 32060 ft | 458 kts | 312° |
| 2026-05-05 06:11 | 34.85202 | -120.07771 | 32058 ft | 458 kts | 312° |
| 2026-05-05 06:12 | 34.89653 | -120.13325 | 32071 ft | 457 kts | 312° |
| 2026-05-05 06:12 | 34.94093 | -120.18873 | 32066 ft | 457 kts | 313° |
| 2026-05-05 06:13 | 34.98527 | -120.24426 | 32069 ft | 456 kts | 313° |
| 2026-05-05 06:13 | 35.02947 | -120.29971 | 32072 ft | 456 kts | 313° |
| 2026-05-05 06:14 | 35.07372 | -120.35527 | 32071 ft | 456 kts | 314° |
| 2026-05-05 06:14 | 35.11866 | -120.40925 | 32077 ft | 456 kts | 317° |
| 2026-05-05 06:15 | 35.16563 | -120.46106 | 32062 ft | 455 kts | 318° |
| 2026-05-05 06:15 | 35.21273 | -120.51302 | 32062 ft | 455 kts | 317° |
| 2026-05-05 06:16 | 35.25944 | -120.56526 | 32056 ft | 455 kts | 318° |
| 2026-05-05 06:16 | 35.30607 | -120.61774 | 32066 ft | 455 kts | 318° |
| 2026-05-05 06:17 | 35.35268 | -120.67030 | 32064 ft | 456 kts | 318° |
| 2026-05-05 06:17 | 35.39941 | -120.72308 | 32062 ft | 457 kts | 318° |
| 2026-05-05 06:18 | 35.44622 | -120.77600 | 32066 ft | 458 kts | 319° |
| 2026-05-05 06:18 | 35.49330 | -120.82883 | 32067 ft | 459 kts | 321° |
| 2026-05-05 06:19 | 35.54373 | -120.87666 | 32077 ft | 458 kts | 326° |
| 2026-05-05 06:19 | 35.59527 | -120.92277 | 32066 ft | 459 kts | 327° |
| 2026-05-05 06:20 | 35.64663 | -120.96963 | 32061 ft | 460 kts | 327° |
| 2026-05-05 06:20 | 35.69765 | -121.01700 | 32055 ft | 460 kts | 326° |
| 2026-05-05 06:21 | 35.74852 | -121.06451 | 32048 ft | 459 kts | 327° |
| 2026-05-05 06:21 | 35.79927 | -121.11197 | 32067 ft | 457 kts | 327° |
| 2026-05-05 06:22 | 35.84964 | -121.15912 | 31821 ft | 459 kts | 328° |
| 2026-05-05 06:22 | 35.87492 | -121.18281 | 31504 ft | 452 kts | 328° |
| 2026-05-05 06:22 | 35.89965 | -121.20605 | 31081 ft | 444 kts | 329° |
| 2026-05-05 06:23 | 35.92407 | -121.22902 | 30664 ft | 438 kts | 330° |
| 2026-05-05 06:23 | 35.94810 | -121.25162 | 30283 ft | 431 kts | 331° |
| 2026-05-05 06:23 | 35.97181 | -121.27390 | 29848 ft | 425 kts | 332° |
| 2026-05-05 06:23 | 35.99515 | -121.29582 | 29404 ft | 419 kts | 331° |
| 2026-05-05 06:24 | 36.01819 | -121.31749 | 29017 ft | 412 kts | 331° |
| 2026-05-05 06:24 | 36.04083 | -121.33880 | 28606 ft | 407 kts | 331° |
| 2026-05-05 06:24 | 36.06303 | -121.35974 | 28175 ft | 395 kts | 331° |
| 2026-05-05 06:24 | 36.08487 | -121.37931 | 27818 ft | 378 kts | 335° |
| 2026-05-05 06:25 | 36.10662 | -121.39661 | 27496 ft | 368 kts | 337° |
| 2026-05-05 06:25 | 36.12799 | -121.41281 | 27117 ft | 363 kts | 337° |
| 2026-05-05 06:25 | 36.14942 | -121.42897 | 26752 ft | 359 kts | 337° |
| 2026-05-05 06:25 | 36.17064 | -121.44509 | 26434 ft | 355 kts | 336° |
| 2026-05-05 06:26 | 36.19161 | -121.46116 | 26068 ft | 354 kts | 336° |
| 2026-05-05 06:26 | 36.21250 | -121.47729 | 25681 ft | 352 kts | 336° |
| 2026-05-05 06:26 | 36.23309 | -121.49331 | 25364 ft | 348 kts | 335° |
| 2026-05-05 06:26 | 36.25352 | -121.50925 | 25023 ft | 346 kts | 335° |
| 2026-05-05 06:27 | 36.27390 | -121.52519 | 24667 ft | 344 kts | 335° |
| 2026-05-05 06:27 | 36.31407 | -121.55665 | 24010 ft | 341 kts | 335° |
| 2026-05-05 06:27 | 36.33405 | -121.57231 | 23671 ft | 340 kts | 334° |
| 2026-05-05 06:28 | 36.35399 | -121.58795 | 23267 ft | 339 kts | 334° |
| 2026-05-05 06:28 | 36.37392 | -121.60362 | 22899 ft | 337 kts | 334° |
| 2026-05-05 06:28 | 36.39343 | -121.61895 | 22535 ft | 334 kts | 334° |
| 2026-05-05 06:28 | 36.41298 | -121.63432 | 22212 ft | 331 kts | 334° |
| 2026-05-05 06:29 | 36.43235 | -121.64957 | 21883 ft | 328 kts | 334° |
| 2026-05-05 06:29 | 36.45157 | -121.66470 | 21547 ft | 326 kts | 333° |
| 2026-05-05 06:29 | 36.47066 | -121.67973 | 21218 ft | 324 kts | 333° |
| 2026-05-05 06:29 | 36.48957 | -121.69463 | 20890 ft | 321 kts | 333° |
| 2026-05-05 06:30 | 36.50843 | -121.70951 | 20523 ft | 321 kts | 333° |
| 2026-05-05 06:30 | 36.52725 | -121.72435 | 20166 ft | 320 kts | 333° |
| 2026-05-05 06:30 | 36.54607 | -121.73922 | 19842 ft | 323 kts | 332° |
| 2026-05-05 06:30 | 36.56567 | -121.75465 | 19517 ft | 347 kts | 332° |
| 2026-05-05 06:31 | 36.58689 | -121.77134 | 19109 ft | 369 kts | 331° |
| 2026-05-05 06:31 | 36.60810 | -121.78814 | 18731 ft | 373 kts | 331° |
| 2026-05-05 06:31 | 36.63057 | -121.80601 | 18298 ft | 372 kts | 330° |
| 2026-05-05 06:31 | 36.65227 | -121.82329 | 17884 ft | 369 kts | 330° |
| 2026-05-05 06:32 | 36.67378 | -121.84039 | 17482 ft | 365 kts | 331° |
| 2026-05-05 06:32 | 36.69484 | -121.85712 | 17118 ft | 362 kts | 331° |
| 2026-05-05 06:32 | 36.71624 | -121.87412 | 16714 ft | 359 kts | 331° |
| 2026-05-05 06:32 | 36.73729 | -121.89057 | 16349 ft | 355 kts | 334° |
| 2026-05-05 06:33 | 36.76008 | -121.90076 | 15971 ft | 346 kts | 351° |
| 2026-05-05 06:33 | 36.78357 | -121.90685 | 15597 ft | 343 kts | 351° |
| 2026-05-05 06:33 | 36.80653 | -121.91283 | 15242 ft | 340 kts | 351° |
| 2026-05-05 06:33 | 36.82960 | -121.91899 | 14891 ft | 338 kts | 350° |
| 2026-05-05 06:34 | 36.85254 | -121.92525 | 14528 ft | 336 kts | 350° |
| 2026-05-05 06:34 | 36.87534 | -121.93156 | 14180 ft | 335 kts | 350° |
| 2026-05-05 06:34 | 36.89801 | -121.93788 | 13834 ft | 333 kts | 349° |
| 2026-05-05 06:34 | 36.92053 | -121.94418 | 13437 ft | 332 kts | 349° |
| 2026-05-05 06:35 | 36.94307 | -121.95049 | 13066 ft | 330 kts | 349° |
| 2026-05-05 06:35 | 36.96521 | -121.95742 | 12732 ft | 326 kts | 345° |
| 2026-05-05 06:35 | 36.98645 | -121.96553 | 12378 ft | 312 kts | 343° |
| 2026-05-05 06:35 | 37.00672 | -121.97368 | 12052 ft | 299 kts | 343° |
| 2026-05-05 06:36 | 37.02615 | -121.98152 | 11743 ft | 288 kts | 343° |
| 2026-05-05 06:36 | 37.04502 | -121.98906 | 11445 ft | 283 kts | 343° |
| 2026-05-05 06:36 | 37.06377 | -121.99650 | 11139 ft | 282 kts | 343° |
| 2026-05-05 06:36 | 37.08244 | -122.00386 | 10835 ft | 280 kts | 343° |
| 2026-05-05 06:37 | 37.10100 | -122.01116 | 10556 ft | 279 kts | 343° |
| 2026-05-05 06:37 | 37.11948 | -122.01841 | 10250 ft | 278 kts | 343° |
| 2026-05-05 06:37 | 37.13770 | -122.02555 | 10109 ft | 271 kts | 343° |
| 2026-05-05 06:37 | 37.15550 | -122.03252 | 9888 ft | 266 kts | 343° |
| 2026-05-05 06:38 | 37.17315 | -122.03943 | 9592 ft | 265 kts | 343° |
| 2026-05-05 06:38 | 37.18478 | -122.04398 | 9404 ft | 264 kts | 343° |
| 2026-05-05 06:38 | 37.20228 | -122.05084 | 9124 ft | 263 kts | 342° |
| 2026-05-05 06:38 | 37.21966 | -122.05765 | 8839 ft | 261 kts | 342° |
| 2026-05-05 06:39 | 37.23698 | -122.06444 | 8560 ft | 260 kts | 342° |
| 2026-05-05 06:39 | 37.25422 | -122.07120 | 8288 ft | 259 kts | 341° |
| 2026-05-05 06:39 | 37.27136 | -122.07792 | 8016 ft | 258 kts | 342° |
| 2026-05-05 06:39 | 37.28866 | -122.08471 | 7685 ft | 264 kts | 341° |
| 2026-05-05 06:40 | 37.30648 | -122.09175 | 7363 ft | 272 kts | 342° |
| 2026-05-05 06:40 | 37.32464 | -122.09891 | 7004 ft | 275 kts | 341° |
| 2026-05-05 06:40 | 37.34298 | -122.10614 | 6642 ft | 277 kts | 341° |
| 2026-05-05 06:40 | 37.36143 | -122.11342 | 6254 ft | 279 kts | 341° |
| 2026-05-05 06:41 | 37.37999 | -122.12068 | 5877 ft | 279 kts | 342° |
| 2026-05-05 06:41 | 37.39871 | -122.12720 | 5534 ft | 279 kts | 343° |
| 2026-05-05 06:41 | 37.41745 | -122.13350 | 5204 ft | 279 kts | 344° |
| 2026-05-05 06:41 | 37.43607 | -122.13979 | 4857 ft | 274 kts | 343° |
| 2026-05-05 06:42 | 37.45418 | -122.14591 | 4513 ft | 265 kts | 343° |
| 2026-05-05 06:42 | 37.47174 | -122.15170 | 4197 ft | 257 kts | 343° |
| 2026-05-05 06:42 | 37.48883 | -122.15733 | 3888 ft | 250 kts | 343° |
| 2026-05-05 06:42 | 37.50540 | -122.16278 | 3597 ft | 243 kts | 343° |
| 2026-05-05 06:43 | 37.52116 | -122.16796 | 3428 ft | 229 kts | 343° |
| 2026-05-05 06:43 | 37.53533 | -122.17516 | 3267 ft | 207 kts | 317° |
| 2026-05-05 06:43 | 37.54257 | -122.18951 | 3062 ft | 191 kts | 292° |
| 2026-05-05 06:43 | 37.54906 | -122.20395 | 2691 ft | 189 kts | 301° |
| 2026-05-05 06:44 | 37.55547 | -122.21813 | 2409 ft | 182 kts | 297° |
| 2026-05-05 06:44 | 37.56124 | -122.23176 | 2226 ft | 170 kts | 297° |
| 2026-05-05 06:44 | 37.56675 | -122.24470 | 2063 ft | 168 kts | 297° |
| 2026-05-05 06:44 | 37.57212 | -122.25754 | 1842 ft | 163 kts | 297° |
| 2026-05-05 06:45 | 37.57731 | -122.27000 | 1622 ft | 162 kts | 297° |
| 2026-05-05 06:45 | 37.58259 | -122.28269 | 1396 ft | 164 kts | 297° |
| 2026-05-05 06:45 | 37.58781 | -122.29524 | 1147 ft | 158 kts | 297° |
| 2026-05-05 06:45 | 37.59283 | -122.30729 | 947 ft | 153 kts | 297° |
| 2026-05-05 06:46 | 37.59776 | -122.31911 | 728 ft | 151 kts | 297° |
| 2026-05-05 06:46 | 37.60256 | -122.33065 | 535 ft | 148 kts | 298° |
| 2026-05-05 06:46 | 37.60734 | -122.34210 | 330 ft | 147 kts | 297° |
| 2026-05-05 06:46 | 37.61203 | -122.35347 | 149 ft | 145 kts | 297° |
| 2026-05-05 06:47 | 37.61664 | -122.36458 | 15 ft | 132 kts | 297° |
| 2026-05-05 06:47 | 37.62032 | -122.37333 | 15 ft | 93 kts | 298° |
| 2026-05-05 06:47 | 37.62279 | -122.37917 | 21 ft | 53 kts | 298° |
| 2026-05-05 06:47 | 37.62332 | -122.38041 | 20 ft | 0 kts | 301° |
| 2026-05-05 06:48 | 37.62347 | -122.38071 | 21 ft | 7 kts | 303° |
| 2026-05-05 06:48 | 37.62395 | -122.38121 | 18 ft | 11 kts | 335° |
| 2026-05-05 06:48 | 37.62484 | -122.38128 | 18 ft | 15 kts | 12° |
| 2026-05-05 06:48 | 37.62551 | -122.38196 | 15 ft | 13 kts | 295° |
| 2026-05-05 06:49 | 37.62591 | -122.38298 | 15 ft | 13 kts | 297° |
| 2026-05-05 06:49 | 37.62632 | -122.38396 | 17 ft | 12 kts | 298° |
| 2026-05-05 06:49 | 37.62673 | -122.38491 | 17 ft | 12 kts | 298° |
| 2026-05-05 06:49 | 37.62712 | -122.38584 | 17 ft | 12 kts | 298° |
| 2026-05-05 06:50 | 37.62750 | -122.38674 | 19 ft | 12 kts | 298° |
| 2026-05-05 06:50 | 37.62787 | -122.38762 | 22 ft | 11 kts | 297° |
| 2026-05-05 06:50 | 37.62823 | -122.38848 | 22 ft | 11 kts | 298° |
| 2026-05-05 06:50 | 37.62858 | -122.38932 | 22 ft | 11 kts | 298° |
| 2026-05-05 06:51 | 37.62892 | -122.39013 | 22 ft | 10 kts | 298° |
| 2026-05-05 06:51 | 37.62925 | -122.39092 | 22 ft | 11 kts | 297° |
| 2026-05-05 06:51 | 37.62969 | -122.39185 | 22 ft | 14 kts | 315° |
| 2026-05-05 06:51 | 37.63071 | -122.39246 | 18 ft | 18 kts | 336° |
| 2026-05-05 06:52 | 37.63161 | -122.39213 | 18 ft | 16 kts | 64° |
| 2026-05-05 06:52 | 37.63235 | -122.39150 | 16 ft | 13 kts | 332° |
| 2026-05-05 06:52 | 37.63325 | -122.39177 | 15 ft | 14 kts | 14° |
| 2026-05-05 06:52 | 37.63394 | -122.39085 | 16 ft | 15 kts | 61° |
| 2026-05-05 06:53 | 37.63433 | -122.38963 | 15 ft | 16 kts | 72° |
| 2026-05-05 06:53 | 37.63490 | -122.38831 | 12 ft | 15 kts | 45° |
| 2026-05-05 06:53 | 37.63563 | -122.38821 | 16 ft | 10 kts | 329° |
| 2026-05-05 06:53 | 37.63593 | -122.38814 | 16 ft | 4 kts | 41° |
| 2026-05-05 06:54 | 37.63611 | -122.38779 | 18 ft | 6 kts | 59° |
| 2026-05-05 06:54 | 37.63621 | -122.38758 | 17 ft | 0 kts | 59° |